createdAt,value
2023-04-14T00:00:33.661Z,5.71
2023-04-14T00:03:07.590Z,5.70
2023-04-14T00:05:41.044Z,5.70
2023-04-14T00:08:15.680Z,5.66
2023-04-14T00:10:48.744Z,5.62
2023-04-14T00:13:21.894Z,5.61
2023-04-14T00:15:56.185Z,5.61
2023-04-14T00:18:29.211Z,5.69
2023-04-14T00:21:02.520Z,5.68
2023-04-14T00:23:36.894Z,5.68
2023-04-14T00:26:10.092Z,5.65
2023-04-14T00:28:43.141Z,5.63
2023-04-14T00:31:16.363Z,5.60
2023-04-14T00:33:49.385Z,5.49
2023-04-14T00:36:22.465Z,5.50
2023-04-14T00:38:56.844Z,5.41
2023-04-14T00:41:34.720Z,5.41
2023-04-14T00:44:07.816Z,5.35
2023-04-14T00:46:41.773Z,5.35
2023-04-14T00:49:16.744Z,5.28
2023-04-14T00:51:49.993Z,5.34
2023-04-14T00:54:24.682Z,5.39
2023-04-14T00:56:57.974Z,5.43
2023-04-14T00:59:31.278Z,5.49
2023-04-14T01:02:04.836Z,5.49
2023-04-14T01:04:51.974Z,5.48
2023-04-14T01:07:28.932Z,5.50
2023-04-14T01:10:03.833Z,5.49
2023-04-14T01:13:01.774Z,5.53
2023-04-14T01:15:41.096Z,5.57
2023-04-14T01:18:23.249Z,5.59
2023-04-14T01:21:04.650Z,5.57
2023-04-14T01:23:42.512Z,5.61
2023-04-14T01:26:30.422Z,5.64
2023-04-14T01:29:45.083Z,5.68
2023-04-14T01:32:24.507Z,5.61
2023-04-14T01:34:58.969Z,5.55
2023-04-14T01:37:36.920Z,5.54
2023-04-14T01:40:16.766Z,5.54
2023-04-14T01:42:57.511Z,5.60
2023-04-14T01:45:39.315Z,5.60
2023-04-14T01:48:14.046Z,5.60
2023-04-14T01:50:48.393Z,5.59
2023-04-14T01:53:22.348Z,5.57
2023-04-14T01:55:56.784Z,5.57
2023-04-14T01:58:32.171Z,5.58
2023-04-14T02:01:06.581Z,5.52
2023-04-14T02:03:42.309Z,5.47
2023-04-14T02:06:16.666Z,5.51
2023-04-14T02:08:50.142Z,5.53
2023-04-14T02:11:24.311Z,5.58
2023-04-14T02:13:57.713Z,5.59
2023-04-14T02:16:31.442Z,5.63
2023-04-14T02:19:06.554Z,5.64
2023-04-14T02:21:41.641Z,5.70
2023-04-14T02:24:14.860Z,5.74
2023-04-14T02:26:56.010Z,5.74
2023-04-14T02:29:30.689Z,5.72
2023-04-14T02:32:09.642Z,5.77
2023-04-14T02:34:53.146Z,5.75
2023-04-14T02:37:32.838Z,5.74
2023-04-14T02:40:14.097Z,5.69
2023-04-14T02:42:53.186Z,5.73
2023-04-14T02:45:32.260Z,5.69
2023-04-14T02:48:11.446Z,5.68
2023-04-14T02:50:49.952Z,5.71
2023-04-14T02:53:25.736Z,5.68
2023-04-14T02:55:59.288Z,5.64
2023-04-14T02:58:32.737Z,5.64
2023-04-14T03:01:06.611Z,5.61
2023-04-14T03:03:40.516Z,5.61
2023-04-14T03:06:16.794Z,5.61
2023-04-14T03:08:50.862Z,5.62
2023-04-14T03:11:24.680Z,5.60
2023-04-14T03:13:58.720Z,5.61
2023-04-14T03:16:33.122Z,5.56
2023-04-14T03:19:10.281Z,5.60
2023-04-14T03:21:45.428Z,5.59
2023-04-14T03:24:24.345Z,5.56
2023-04-14T03:27:02.427Z,5.57
2023-04-14T03:29:41.016Z,5.55
2023-04-14T03:32:16.199Z,5.55
2023-04-14T03:34:55.020Z,5.53
2023-04-14T03:37:32.959Z,5.50
2023-04-14T03:40:11.146Z,5.50
2023-04-14T03:42:46.176Z,5.48
2023-04-14T03:45:21.224Z,5.44
2023-04-14T03:48:01.945Z,5.46
2023-04-14T03:50:37.927Z,5.50
2023-04-14T03:53:14.217Z,5.47
2023-04-14T03:55:49.526Z,5.38
2023-04-14T03:58:23.440Z,5.36
2023-04-14T04:00:57.460Z,5.29
2023-04-14T04:03:31.319Z,5.28
2023-04-14T04:06:06.155Z,5.24
2023-04-14T04:08:42.454Z,5.18
2023-04-14T04:11:18.828Z,5.09
2023-04-14T04:13:54.163Z,5.05
2023-04-14T04:16:29.018Z,5.01
2023-04-14T04:19:07.489Z,4.96
2023-04-14T04:21:43.348Z,5.01
2023-04-14T04:28:29.894Z,5.14
2023-04-14T04:31:06.198Z,5.15
2023-04-14T04:33:39.308Z,5.28
2023-04-14T04:36:13.046Z,5.16
2023-04-14T04:38:46.180Z,5.12
2023-04-14T04:41:22.996Z,5.19
2023-04-14T04:43:59.046Z,5.12
2023-04-14T04:46:49.785Z,5.09
2023-04-14T04:49:23.794Z,5.03
2023-04-14T04:51:57.607Z,5.04
2023-04-14T04:54:30.670Z,5.18
2023-04-14T04:57:03.803Z,5.11
2023-04-14T04:59:38.418Z,5.01
2023-04-14T05:02:11.517Z,4.95
2023-04-14T05:04:45.739Z,5.03
2023-04-14T05:07:19.667Z,5.08
2023-04-14T05:09:52.899Z,5.05
2023-04-14T05:12:26.043Z,5.01
2023-04-14T05:15:00.460Z,4.99
2023-04-14T05:17:33.548Z,5.09
2023-04-14T05:20:08.343Z,5.09
2023-04-14T05:22:41.542Z,5.15
2023-04-14T05:25:14.623Z,5.26
2023-04-14T05:27:47.678Z,5.35
2023-04-14T05:30:22.145Z,5.33
2023-04-14T05:32:55.467Z,5.40
2023-04-14T05:35:28.557Z,5.41
2023-04-14T05:38:01.633Z,5.33
2023-04-14T05:40:34.963Z,5.32
2023-04-14T05:43:08.344Z,5.41
2023-04-14T05:45:43.566Z,5.39
2023-04-14T05:48:17.017Z,5.44
2023-04-14T05:50:50.126Z,5.51
2023-04-14T05:53:23.657Z,5.48
2023-04-14T05:55:57.216Z,5.51
2023-04-14T05:58:30.677Z,5.63
2023-04-14T06:01:06.327Z,5.68
2023-04-14T06:03:40.604Z,5.74
2023-04-14T06:06:14.046Z,5.80
2023-04-14T06:08:47.198Z,5.83
2023-04-14T06:11:20.394Z,5.98
2023-04-14T06:13:53.432Z,5.98
2023-04-14T06:16:27.982Z,5.99
2023-04-14T06:19:01.487Z,6.00
2023-04-14T06:21:34.809Z,6.10
2023-04-14T06:24:08.618Z,6.47
2023-04-14T06:26:41.947Z,6.78
2023-04-14T06:29:15.071Z,6.87
2023-04-14T06:31:51.667Z,6.98
2023-04-14T06:34:24.913Z,7.06
2023-04-14T06:36:58.874Z,7.06
2023-04-14T06:39:31.908Z,6.97
2023-04-14T06:42:05.196Z,6.94
2023-04-14T06:44:38.230Z,7.09
2023-04-14T06:47:12.623Z,7.28
2023-04-14T06:49:45.754Z,7.43
2023-04-14T06:52:18.778Z,7.56
2023-04-14T06:54:52.058Z,7.62
2023-04-14T06:57:25.389Z,8.19
2023-04-14T06:59:58.532Z,8.66
2023-04-14T07:02:33.142Z,9.25
2023-04-14T07:05:07.299Z,9.69
2023-04-14T07:07:40.900Z,10.06
2023-04-14T07:10:14.054Z,10.77
2023-04-14T07:12:47.170Z,11.19
2023-04-14T07:15:20.539Z,11.65
2023-04-14T07:17:55.919Z,11.87
2023-04-14T07:20:30.464Z,12.30
2023-04-14T07:23:03.514Z,12.42
2023-04-14T07:25:37.485Z,12.88
2023-04-14T07:28:11.552Z,13.35
2023-04-14T07:30:44.634Z,13.56
2023-04-14T07:33:19.978Z,13.88
2023-04-14T07:36:02.750Z,13.77
2023-04-14T07:38:37.121Z,13.44
2023-04-14T07:41:10.213Z,13.49
2023-04-14T07:43:44.460Z,13.18
2023-04-14T07:46:17.523Z,13.29
2023-04-14T07:48:52.081Z,13.47
2023-04-14T07:51:25.144Z,13.59
2023-04-14T07:53:58.665Z,13.40
2023-04-14T07:56:31.810Z,13.19
2023-04-14T07:59:04.819Z,13.37
2023-04-14T08:01:38.250Z,13.38
2023-04-14T08:04:12.844Z,13.49
2023-04-14T08:06:46.214Z,13.45
2023-04-14T08:09:19.368Z,13.44
2023-04-14T08:11:52.460Z,13.49
2023-04-14T08:14:25.667Z,13.68
2023-04-14T08:16:58.683Z,13.70
2023-04-14T08:19:33.861Z,13.69
2023-04-14T08:22:07.022Z,13.74
2023-04-14T08:24:40.612Z,13.76
2023-04-14T08:27:13.713Z,13.86
2023-04-14T08:29:46.726Z,13.90
2023-04-14T08:32:19.807Z,14.00
2023-04-14T08:35:38.626Z,13.93
2023-04-14T08:37:47.181Z,13.89
2023-04-14T08:40:23.238Z,14.06
2023-04-14T08:42:57.598Z,14.11
2023-04-14T08:45:32.873Z,14.26
2023-04-14T08:48:06.725Z,14.26
2023-04-14T08:50:53.633Z,14.38
2023-04-14T08:53:27.923Z,14.37
2023-04-14T08:56:04.119Z,14.33
2023-04-14T08:58:37.270Z,14.20
2023-04-14T09:01:11.247Z,14.17
2023-04-14T09:03:45.335Z,14.32
2023-04-14T09:06:20.076Z,14.29
2023-04-14T09:08:53.604Z,14.31
2023-04-14T09:11:26.897Z,14.27
2023-04-14T09:14:00.858Z,14.43
2023-04-14T09:16:34.789Z,14.62
2023-04-14T09:19:09.225Z,14.71
2023-04-14T09:21:53.483Z,14.76
2023-04-14T09:24:32.139Z,14.82
2023-04-14T09:27:06.896Z,14.72
2023-04-14T09:29:40.083Z,14.67
2023-04-14T09:32:13.479Z,14.72
2023-04-14T09:34:53.452Z,14.91
2023-04-14T09:37:42.630Z,14.98
2023-04-14T09:40:29.771Z,14.94
2023-04-14T09:43:02.859Z,15.02
2023-04-14T09:45:43.696Z,15.14
2023-04-14T09:48:16.738Z,15.29
2023-04-14T09:51:06.596Z,15.38
2023-04-14T09:53:42.325Z,15.45
2023-04-14T09:56:15.822Z,15.50
2023-04-14T09:58:50.437Z,15.43
2023-04-14T10:01:23.527Z,15.46
2023-04-14T10:03:56.698Z,15.60
2023-04-14T10:06:31.248Z,15.53
2023-04-14T10:09:05.919Z,15.47
2023-04-14T10:11:39.721Z,14.95
2023-04-14T10:14:12.740Z,14.96
2023-04-14T10:16:45.805Z,14.76
2023-04-14T10:19:19.559Z,14.75
2023-04-14T10:21:53.928Z,14.53
2023-04-14T10:24:28.302Z,14.74
2023-04-14T10:27:03.867Z,14.93
2023-04-14T10:29:37.014Z,15.15
2023-04-14T10:32:14.801Z,15.06
2023-04-14T10:35:07.449Z,14.78
2023-04-14T10:37:41.493Z,14.90
2023-04-14T10:40:15.947Z,14.75
2023-04-14T10:42:56.566Z,14.77
2023-04-14T10:45:29.756Z,14.60
2023-04-14T10:48:04.096Z,14.43
2023-04-14T10:50:48.946Z,14.50
2023-04-14T10:53:25.369Z,14.67
2023-04-14T10:56:05.952Z,15.01
2023-04-14T10:58:39.433Z,14.99
2023-04-14T11:01:27.323Z,15.04
2023-04-14T11:04:18.878Z,14.78
2023-04-14T11:06:57.126Z,14.93
2023-04-14T11:09:37.050Z,15.00
2023-04-14T11:12:27.816Z,14.98
2023-04-14T11:15:04.644Z,14.70
2023-04-14T11:17:39.638Z,14.77
2023-04-14T11:20:16.880Z,14.75
2023-04-14T11:22:51.490Z,15.01
2023-04-14T11:25:25.482Z,15.21
2023-04-14T11:28:03.544Z,15.26
2023-04-14T11:30:36.584Z,15.47
2023-04-14T11:33:09.684Z,15.67
2023-04-14T11:35:43.608Z,15.74
2023-04-14T11:38:16.852Z,15.84
2023-04-14T11:40:50.527Z,15.83
2023-04-14T11:43:25.663Z,15.60
2023-04-14T11:46:00.343Z,15.40
2023-04-14T11:48:33.430Z,15.11
2023-04-14T11:51:07.079Z,14.80
2023-04-14T11:53:40.752Z,14.92
2023-04-14T11:56:14.963Z,14.79
2023-04-14T11:58:49.419Z,14.84
2023-04-14T12:01:24.204Z,14.52
2023-04-14T12:03:58.502Z,14.69
2023-04-14T12:06:38.860Z,14.82
2023-04-14T12:09:11.967Z,14.77
2023-04-14T12:11:55.466Z,14.67
2023-04-14T12:14:29.933Z,14.51
2023-04-14T12:17:03.408Z,14.47
2023-04-14T12:19:37.302Z,14.47
2023-04-14T12:22:10.581Z,14.49
2023-04-14T12:24:45.053Z,14.53
2023-04-14T12:27:20.740Z,14.76
2023-04-14T12:29:55.456Z,14.85
2023-04-14T12:32:30.640Z,14.84
2023-04-14T12:35:03.684Z,14.56
2023-04-14T12:37:38.492Z,14.50
2023-04-14T12:40:12.600Z,14.41
2023-04-14T12:42:48.178Z,14.42
2023-04-14T12:45:22.807Z,14.47
2023-04-14T12:47:57.674Z,14.48
2023-04-14T12:50:32.675Z,14.41
2023-04-14T12:53:24.594Z,14.39
2023-04-14T12:56:08.940Z,14.46
2023-04-14T12:58:43.618Z,14.45
2023-04-14T13:01:21.230Z,14.10
2023-04-14T13:03:56.009Z,14.06
2023-04-14T13:06:29.838Z,14.10
2023-04-14T13:09:03.083Z,14.26
2023-04-14T13:11:36.441Z,14.25
2023-04-14T13:14:09.535Z,14.25
2023-04-14T13:16:44.783Z,14.30
2023-04-14T13:19:17.891Z,14.29
2023-04-14T13:21:51.559Z,14.37
2023-04-14T13:24:24.714Z,14.49
2023-04-14T13:26:57.825Z,14.50
2023-04-14T13:29:32.798Z,14.45
2023-04-14T13:32:11.641Z,14.42
2023-04-14T13:34:44.951Z,14.40
2023-04-14T13:37:17.972Z,14.33
2023-04-14T13:39:50.998Z,14.15
2023-04-14T13:42:24.116Z,14.15
2023-04-14T13:44:57.289Z,14.13
2023-04-14T13:47:31.717Z,14.05
2023-04-14T13:50:05.088Z,14.06
2023-04-14T13:52:38.064Z,14.11
2023-04-14T13:55:11.376Z,14.41
2023-04-14T13:57:44.385Z,14.99
2023-04-14T14:00:18.146Z,15.11
2023-04-14T14:02:52.809Z,15.19
2023-04-14T14:05:27.205Z,15.16
2023-04-14T14:08:00.624Z,15.21
2023-04-14T14:10:33.641Z,15.15
2023-04-14T14:13:06.672Z,14.95
2023-04-14T14:15:39.749Z,14.87
2023-04-14T14:18:14.439Z,14.76
2023-04-14T14:20:48.126Z,14.76
2023-04-14T14:23:21.187Z,14.68
2023-04-14T14:25:55.740Z,14.65
2023-04-14T14:28:28.823Z,14.67
2023-04-14T14:31:01.877Z,14.55
2023-04-14T14:33:37.879Z,14.31
2023-04-14T14:36:10.964Z,14.12
2023-04-14T14:38:43.982Z,14.00
2023-04-14T14:41:17.036Z,13.78
2023-04-14T14:43:51.285Z,13.74
2023-04-14T14:46:24.501Z,13.91
2023-04-14T14:48:58.941Z,13.87
2023-04-14T14:51:32.316Z,13.77
2023-04-14T14:54:10.160Z,13.59
2023-04-14T14:56:43.715Z,13.57
2023-04-14T14:59:16.776Z,13.66
2023-04-14T15:01:49.854Z,13.46
2023-04-14T15:04:24.477Z,13.46
2023-04-14T15:06:57.567Z,13.32
2023-04-14T15:09:30.693Z,13.42
2023-04-14T15:12:03.876Z,13.39
2023-04-14T15:14:36.927Z,13.37
2023-04-14T15:17:09.988Z,13.39
2023-04-14T15:19:45.161Z,13.66
2023-04-14T15:22:18.198Z,13.56
2023-04-14T15:24:51.233Z,13.42
2023-04-14T15:27:24.289Z,13.40
2023-04-14T15:29:57.930Z,13.61
2023-04-14T15:32:31.110Z,13.48
2023-04-14T15:35:06.325Z,13.41
2023-04-14T15:37:39.351Z,13.56
2023-04-14T15:40:12.723Z,13.39
2023-04-14T15:42:45.992Z,13.88
2023-04-14T15:45:19.203Z,13.65
2023-04-14T15:47:52.293Z,13.64
2023-04-14T15:50:26.717Z,13.56
2023-04-14T15:52:59.768Z,13.79
2023-04-14T15:55:32.814Z,13.83
2023-04-14T15:58:06.560Z,13.80
2023-04-14T16:00:39.578Z,13.65
2023-04-14T16:03:13.625Z,13.96
2023-04-14T16:05:48.322Z,14.00
2023-04-14T16:08:21.342Z,13.68
2023-04-14T16:10:54.500Z,13.52
2023-04-14T16:13:27.559Z,13.46
2023-04-14T16:16:00.567Z,13.37
2023-04-14T16:18:34.095Z,13.37
2023-04-14T16:21:08.584Z,13.42
2023-04-14T16:23:41.828Z,13.27
2023-04-14T16:26:14.865Z,13.22
2023-04-14T16:28:47.915Z,13.17
2023-04-14T16:31:20.998Z,13.05
2023-04-14T16:33:54.062Z,13.02
2023-04-14T16:36:29.074Z,13.04
2023-04-14T16:39:02.272Z,12.97
2023-04-14T16:41:35.574Z,12.99
2023-04-14T16:44:08.622Z,13.00
2023-04-14T16:46:41.707Z,12.98
2023-04-14T16:49:14.776Z,12.76
2023-04-14T16:51:49.168Z,12.83
2023-04-14T16:54:22.191Z,12.69
2023-04-14T16:56:55.187Z,12.71
2023-04-14T16:59:28.157Z,12.55
2023-04-14T17:02:01.988Z,12.65
2023-04-14T17:04:35.501Z,12.59
2023-04-14T17:07:10.365Z,12.56
2023-04-14T17:09:44.147Z,12.47
2023-04-14T17:12:17.667Z,12.34
2023-04-14T17:14:50.974Z,12.38
2023-04-14T17:17:24.113Z,12.36
2023-04-14T17:19:57.651Z,12.38
2023-04-14T17:22:32.269Z,12.43
2023-04-14T17:25:07.607Z,12.42
2023-04-14T17:27:40.594Z,12.40
2023-04-14T17:30:13.938Z,12.34
2023-04-14T17:32:48.765Z,12.27
2023-04-14T17:35:22.391Z,12.25
2023-04-14T17:37:56.985Z,12.26
2023-04-14T17:40:30.109Z,12.25
2023-04-14T17:43:04.390Z,12.30
2023-04-14T17:45:39.910Z,12.23
2023-04-14T17:48:12.969Z,12.17
2023-04-14T17:50:46.476Z,12.13
2023-04-14T17:53:21.136Z,12.06
2023-04-14T17:55:54.351Z,11.95
2023-04-14T17:58:27.797Z,11.92
2023-04-14T18:01:00.956Z,11.84
2023-04-14T18:03:34.704Z,11.85
2023-04-14T18:06:09.216Z,11.81
2023-04-14T18:08:43.638Z,11.75
2023-04-14T18:11:17.257Z,11.64
2023-04-14T18:13:50.691Z,11.58
2023-04-14T18:16:23.757Z,11.60
2023-04-14T18:18:57.038Z,11.62
2023-04-14T18:21:30.119Z,11.59
2023-04-14T18:26:40.659Z,11.58
2023-04-14T18:29:13.704Z,11.57
2023-04-14T18:31:46.702Z,11.53
2023-04-14T18:34:19.854Z,11.48
2023-04-14T18:36:53.285Z,11.45
2023-04-14T18:39:27.910Z,11.41
2023-04-14T18:42:01.159Z,11.37
2023-04-14T18:44:34.397Z,11.32
2023-04-14T18:47:07.473Z,11.26
2023-04-14T18:49:40.523Z,11.20
2023-04-14T18:52:13.538Z,11.16
2023-04-14T18:54:48.209Z,11.12
2023-04-14T18:57:21.232Z,11.08
2023-04-14T18:59:54.227Z,11.05
2023-04-14T19:02:28.017Z,11.04
2023-04-14T19:05:02.357Z,11.03
2023-04-14T19:07:35.888Z,11.04
2023-04-14T19:10:11.536Z,10.97
2023-04-14T19:12:44.573Z,10.96
2023-04-14T19:15:17.805Z,10.91
2023-04-14T19:17:51.393Z,10.85
2023-04-14T19:20:25.337Z,10.85
2023-04-14T19:22:58.466Z,10.80
2023-04-14T19:25:35.054Z,10.74
2023-04-14T19:28:16.292Z,10.67
2023-04-14T19:30:49.441Z,10.57
2023-04-14T19:33:22.494Z,10.55
2023-04-14T19:35:55.786Z,10.50
2023-04-14T19:38:28.938Z,10.42
2023-04-14T19:41:03.707Z,10.29
2023-04-14T19:43:37.267Z,10.21
2023-04-14T19:46:12.987Z,10.02
2023-04-14T19:48:46.728Z,9.96
2023-04-14T19:51:20.048Z,9.86
2023-04-14T19:53:53.081Z,9.80
2023-04-14T19:56:28.130Z,9.69
2023-04-14T19:59:01.510Z,9.61
2023-04-14T20:01:34.816Z,9.53
2023-04-14T20:04:12.245Z,9.41
2023-04-14T20:06:46.066Z,9.32
2023-04-14T20:09:19.078Z,9.16
2023-04-14T20:11:53.598Z,9.15
2023-04-14T20:14:28.129Z,9.07
2023-04-14T20:17:01.215Z,9.02
2023-04-14T20:19:34.242Z,8.95
2023-04-14T20:22:07.538Z,8.90
2023-04-14T20:24:41.379Z,8.82
2023-04-14T20:27:15.757Z,8.72
2023-04-14T20:29:48.772Z,8.63
2023-04-14T20:32:21.819Z,8.53
2023-04-14T20:34:55.075Z,8.50
2023-04-14T20:37:29.104Z,8.44
2023-04-14T20:40:02.700Z,8.40
2023-04-14T20:42:37.109Z,8.32
2023-04-14T20:45:11.205Z,8.23
2023-04-14T20:47:44.223Z,8.15
2023-04-14T20:50:17.713Z,8.03
2023-04-14T20:52:51.476Z,7.99
2023-04-14T20:55:24.737Z,7.92
2023-04-14T20:57:59.126Z,7.83
2023-04-14T21:00:34.265Z,7.79
2023-04-14T21:03:07.844Z,7.78
2023-04-14T21:05:41.269Z,7.71
2023-04-14T21:08:14.332Z,7.68
2023-04-14T21:11:15.993Z,7.64
2023-04-14T21:15:27.878Z,7.54
2023-04-14T21:16:35.556Z,7.45
2023-04-14T21:19:09.408Z,7.49
2023-04-14T21:21:42.403Z,7.09
2023-04-14T21:24:15.436Z,7.01
2023-04-14T21:26:48.438Z,6.98
2023-04-14T21:29:22.800Z,6.91
2023-04-14T21:31:56.277Z,6.72
2023-04-14T21:34:29.380Z,6.74
2023-04-14T21:37:02.493Z,6.68
2023-04-14T21:39:35.588Z,6.72
2023-04-14T21:42:08.589Z,6.74
2023-04-14T21:44:43.816Z,6.71
2023-04-14T21:47:17.635Z,6.66
2023-04-14T21:49:50.901Z,6.66
2023-04-14T21:52:24.924Z,6.71
2023-04-14T21:54:57.937Z,6.72
2023-04-14T21:57:44.430Z,6.71
2023-04-14T22:00:26.426Z,6.57
2023-04-14T22:02:59.629Z,6.54
2023-04-14T22:05:32.920Z,6.50
2023-04-14T22:08:06.089Z,6.46
2023-04-14T22:10:43.235Z,6.43
2023-04-14T22:13:16.240Z,6.37
2023-04-14T22:15:50.691Z,6.18
2023-04-14T22:18:24.979Z,6.15
2023-04-14T22:20:58.715Z,6.06
2023-04-14T22:23:31.856Z,6.08
2023-04-14T22:26:04.993Z,5.97
2023-04-14T22:28:38.067Z,5.88
2023-04-14T22:31:13.237Z,5.90
2023-04-14T22:33:46.445Z,5.87
2023-04-14T22:36:19.512Z,5.88
2023-04-14T22:38:52.543Z,5.78
2023-04-14T22:41:26.202Z,5.71
2023-04-14T22:43:59.218Z,5.69
2023-04-14T22:46:33.788Z,5.66
2023-04-14T22:49:07.594Z,5.67
2023-04-14T22:51:40.955Z,5.76
2023-04-14T22:54:13.966Z,5.85
2023-04-14T22:56:47.176Z,5.85
2023-04-14T22:59:20.281Z,5.82
2023-04-14T23:01:54.718Z,5.87
2023-04-14T23:04:27.839Z,5.90
2023-04-14T23:07:01.008Z,5.95
2023-04-14T23:09:34.049Z,5.92
2023-04-14T23:12:07.274Z,5.87
2023-04-14T23:14:40.595Z,5.88
2023-04-14T23:17:15.132Z,5.90
2023-04-14T23:19:48.148Z,5.91
2023-04-14T23:22:21.217Z,5.89
2023-04-14T23:24:54.238Z,5.92
2023-04-14T23:27:27.348Z,5.84
2023-04-14T23:30:00.613Z,5.82
2023-04-14T23:32:35.003Z,5.78
2023-04-14T23:35:10.307Z,5.78
2023-04-14T23:37:43.381Z,5.80
2023-04-14T23:40:16.607Z,5.73
2023-04-14T23:42:49.891Z,5.70
2023-04-14T23:45:22.905Z,5.69
2023-04-14T23:47:58.634Z,5.68
2023-04-14T23:51:00.612Z,5.66
2023-04-14T23:53:26.527Z,5.67
2023-04-14T23:55:59.559Z,5.63
2023-04-14T23:58:33.762Z,5.58
